sensor_id;sensor_type;location;lat;lon;timestamp;P1;durP1;ratioP1;P2;durP2;ratioP2
75009;SDS011;63564;46.840;18.336;2023-12-28T00:00:48;0.63;;;0.60;;
75009;SDS011;63564;46.840;18.336;2023-12-28T00:03:49;1.40;;;1.10;;
75009;SDS011;63564;46.840;18.336;2023-12-28T00:06:49;1.43;;;1.00;;
75009;SDS011;63564;46.840;18.336;2023-12-28T00:09:50;1.13;;;0.87;;
75009;SDS011;63564;46.840;18.336;2023-12-28T00:12:50;0.80;;;0.60;;
75009;SDS011;63564;46.840;18.336;2023-12-28T00:15:50;1.57;;;1.47;;
75009;SDS011;63564;46.840;18.336;2023-12-28T00:18:51;2.40;;;1.67;;
75009;SDS011;63564;46.840;18.336;2023-12-28T00:21:51;0.80;;;0.80;;
75009;SDS011;63564;46.840;18.336;2023-12-28T00:24:51;1.07;;;0.93;;
75009;SDS011;63564;46.840;18.336;2023-12-28T00:27:52;1.80;;;1.23;;
75009;SDS011;63564;46.840;18.336;2023-12-28T00:30:52;2.07;;;1.27;;
75009;SDS011;63564;46.840;18.336;2023-12-28T00:33:53;2.65;;;1.15;;
75009;SDS011;63564;46.840;18.336;2023-12-28T00:36:53;0.50;;;0.50;;
75009;SDS011;63564;46.840;18.336;2023-12-28T00:39:53;1.27;;;1.03;;
75009;SDS011;63564;46.840;18.336;2023-12-28T00:42:54;1.43;;;1.17;;
75009;SDS011;63564;46.840;18.336;2023-12-28T00:45:54;2.07;;;1.37;;
75009;SDS011;63564;46.840;18.336;2023-12-28T00:48:55;0.93;;;0.83;;
75009;SDS011;63564;46.840;18.336;2023-12-28T00:51:55;2.42;;;1.60;;
75009;SDS011;63564;46.840;18.336;2023-12-28T00:54:55;1.08;;;0.90;;
75009;SDS011;63564;46.840;18.336;2023-12-28T00:57:56;1.17;;;0.90;;
75009;SDS011;63564;46.840;18.336;2023-12-28T01:00:56;1.07;;;1.00;;
75009;SDS011;63564;46.840;18.336;2023-12-28T01:03:56;1.90;;;1.03;;
75009;SDS011;63564;46.840;18.336;2023-12-28T01:06:57;2.70;;;1.20;;
75009;SDS011;63564;46.840;18.336;2023-12-28T01:09:58;1.33;;;1.00;;
75009;SDS011;63564;46.840;18.336;2023-12-28T01:12:58;0.90;;;0.73;;
75009;SDS011;63564;46.840;18.336;2023-12-28T01:15:59;3.90;;;1.37;;
75009;SDS011;63564;46.840;18.336;2023-12-28T01:18:59;1.93;;;1.63;;
75009;SDS011;63564;46.840;18.336;2023-12-28T01:22:00;1.90;;;1.47;;
75009;SDS011;63564;46.840;18.336;2023-12-28T01:25:00;1.95;;;1.40;;
75009;SDS011;63564;46.840;18.336;2023-12-28T01:28:00;0.80;;;0.80;;
75009;SDS011;63564;46.840;18.336;2023-12-28T01:31:01;0.73;;;0.70;;
75009;SDS011;63564;46.840;18.336;2023-12-28T01:34:02;7.82;;;2.20;;
75009;SDS011;63564;46.840;18.336;2023-12-28T01:37:03;1.08;;;0.98;;
75009;SDS011;63564;46.840;18.336;2023-12-28T01:40:03;1.77;;;1.57;;
75009;SDS011;63564;46.840;18.336;2023-12-28T01:43:04;1.13;;;1.02;;
75009;SDS011;63564;46.840;18.336;2023-12-28T01:46:05;1.73;;;1.55;;
75009;SDS011;63564;46.840;18.336;2023-12-28T01:49:06;1.20;;;1.10;;
75009;SDS011;63564;46.840;18.336;2023-12-28T01:52:07;2.45;;;1.13;;
75009;SDS011;63564;46.840;18.336;2023-12-28T01:55:08;1.10;;;0.77;;
75009;SDS011;63564;46.840;18.336;2023-12-28T01:58:08;1.05;;;0.85;;
75009;SDS011;63564;46.840;18.336;2023-12-28T02:01:09;0.97;;;0.87;;
75009;SDS011;63564;46.840;18.336;2023-12-28T02:04:10;1.63;;;1.40;;
75009;SDS011;63564;46.840;18.336;2023-12-28T02:07:11;1.00;;;0.90;;
75009;SDS011;63564;46.840;18.336;2023-12-28T02:10:13;0.60;;;0.60;;
75009;SDS011;63564;46.840;18.336;2023-12-28T02:13:14;0.80;;;0.80;;
75009;SDS011;63564;46.840;18.336;2023-12-28T02:16:33;1.08;;;0.80;;
75009;SDS011;63564;46.840;18.336;2023-12-28T02:19:51;1.02;;;0.80;;
75009;SDS011;63564;46.840;18.336;2023-12-28T02:22:54;2.15;;;1.27;;
75009;SDS011;63564;46.840;18.336;2023-12-28T02:25:55;1.35;;;1.08;;
75009;SDS011;63564;46.840;18.336;2023-12-28T02:28:56;1.53;;;1.07;;
75009;SDS011;63564;46.840;18.336;2023-12-28T02:32:00;2.15;;;1.20;;
75009;SDS011;63564;46.840;18.336;2023-12-28T02:35:08;2.00;;;1.05;;
75009;SDS011;63564;46.840;18.336;2023-12-28T02:38:15;2.35;;;2.03;;
75009;SDS011;63564;46.840;18.336;2023-12-28T02:41:16;0.75;;;0.70;;
75009;SDS011;63564;46.840;18.336;2023-12-28T02:44:18;1.97;;;1.60;;
75009;SDS011;63564;46.840;18.336;2023-12-28T02:47:18;4.63;;;1.55;;
75009;SDS011;63564;46.840;18.336;2023-12-28T02:50:19;2.30;;;1.70;;
75009;SDS011;63564;46.840;18.336;2023-12-28T02:53:19;1.00;;;0.90;;
75009;SDS011;63564;46.840;18.336;2023-12-28T02:56:19;1.55;;;0.95;;
75009;SDS011;63564;46.840;18.336;2023-12-28T02:59:20;1.37;;;1.17;;
75009;SDS011;63564;46.840;18.336;2023-12-28T03:02:20;1.60;;;1.40;;
75009;SDS011;63564;46.840;18.336;2023-12-28T03:05:20;2.07;;;0.97;;
75009;SDS011;63564;46.840;18.336;2023-12-28T03:08:21;0.63;;;0.63;;
75009;SDS011;63564;46.840;18.336;2023-12-28T03:11:21;3.03;;;1.73;;
75009;SDS011;63564;46.840;18.336;2023-12-28T03:14:21;0.90;;;0.90;;
75009;SDS011;63564;46.840;18.336;2023-12-28T03:17:22;1.93;;;1.20;;
75009;SDS011;63564;46.840;18.336;2023-12-28T03:20:23;2.88;;;2.15;;
75009;SDS011;63564;46.840;18.336;2023-12-28T03:23:23;1.67;;;1.07;;
75009;SDS011;63564;46.840;18.336;2023-12-28T03:26:23;2.20;;;1.37;;
75009;SDS011;63564;46.840;18.336;2023-12-28T03:29:24;1.43;;;1.00;;
75009;SDS011;63564;46.840;18.336;2023-12-28T03:32:25;1.98;;;1.05;;
75009;SDS011;63564;46.840;18.336;2023-12-28T03:35:25;0.60;;;0.60;;
75009;SDS011;63564;46.840;18.336;2023-12-28T03:38:27;0.80;;;0.80;;
75009;SDS011;63564;46.840;18.336;2023-12-28T03:41:27;3.17;;;1.45;;
75009;SDS011;63564;46.840;18.336;2023-12-28T03:44:28;1.47;;;1.20;;
75009;SDS011;63564;46.840;18.336;2023-12-28T03:47:28;3.80;;;1.60;;
75009;SDS011;63564;46.840;18.336;2023-12-28T03:50:29;3.63;;;2.10;;
75009;SDS011;63564;46.840;18.336;2023-12-28T03:53:29;0.97;;;0.87;;
75009;SDS011;63564;46.840;18.336;2023-12-28T03:56:31;1.42;;;1.17;;
75009;SDS011;63564;46.840;18.336;2023-12-28T03:59:33;1.40;;;0.82;;
75009;SDS011;63564;46.840;18.336;2023-12-28T04:02:33;1.10;;;0.97;;
75009;SDS011;63564;46.840;18.336;2023-12-28T04:05:33;1.37;;;1.27;;
75009;SDS011;63564;46.840;18.336;2023-12-28T04:08:34;1.97;;;1.80;;
75009;SDS011;63564;46.840;18.336;2023-12-28T04:11:34;2.07;;;1.20;;
75009;SDS011;63564;46.840;18.336;2023-12-28T04:14:34;3.33;;;1.67;;
75009;SDS011;63564;46.840;18.336;2023-12-28T04:17:35;1.27;;;0.88;;
75009;SDS011;63564;46.840;18.336;2023-12-28T04:20:35;1.40;;;1.30;;
75009;SDS011;63564;46.840;18.336;2023-12-28T04:23:36;3.00;;;1.30;;
75009;SDS011;63564;46.840;18.336;2023-12-28T04:26:37;2.97;;;1.33;;
75009;SDS011;63564;46.840;18.336;2023-12-28T04:29:37;1.27;;;1.17;;
75009;SDS011;63564;46.840;18.336;2023-12-28T04:32:38;1.42;;;1.33;;
75009;SDS011;63564;46.840;18.336;2023-12-28T04:35:39;1.70;;;1.30;;
75009;SDS011;63564;46.840;18.336;2023-12-28T04:38:39;2.70;;;1.58;;
75009;SDS011;63564;46.840;18.336;2023-12-28T04:41:40;2.60;;;1.50;;
75009;SDS011;63564;46.840;18.336;2023-12-28T04:44:40;1.70;;;1.47;;
75009;SDS011;63564;46.840;18.336;2023-12-28T04:47:40;1.63;;;1.07;;
75009;SDS011;63564;46.840;18.336;2023-12-28T04:50:41;1.37;;;1.13;;
75009;SDS011;63564;46.840;18.336;2023-12-28T04:53:41;1.60;;;1.40;;
75009;SDS011;63564;46.840;18.336;2023-12-28T04:56:42;1.47;;;1.27;;
75009;SDS011;63564;46.840;18.336;2023-12-28T04:59:42;5.97;;;2.70;;
75009;SDS011;63564;46.840;18.336;2023-12-28T05:02:42;2.08;;;1.45;;
75009;SDS011;63564;46.840;18.336;2023-12-28T05:05:43;2.60;;;1.17;;
75009;SDS011;63564;46.840;18.336;2023-12-28T05:08:43;1.57;;;1.23;;
75009;SDS011;63564;46.840;18.336;2023-12-28T05:11:43;1.17;;;1.07;;
75009;SDS011;63564;46.840;18.336;2023-12-28T05:14:44;1.27;;;0.90;;
75009;SDS011;63564;46.840;18.336;2023-12-28T05:17:44;1.50;;;1.27;;
75009;SDS011;63564;46.840;18.336;2023-12-28T05:20:44;1.37;;;1.17;;
75009;SDS011;63564;46.840;18.336;2023-12-28T05:23:45;1.03;;;0.73;;
75009;SDS011;63564;46.840;18.336;2023-12-28T05:26:45;3.40;;;1.37;;
75009;SDS011;63564;46.840;18.336;2023-12-28T05:29:45;1.37;;;1.23;;
75009;SDS011;63564;46.840;18.336;2023-12-28T05:32:46;1.10;;;1.00;;
75009;SDS011;63564;46.840;18.336;2023-12-28T05:35:46;1.00;;;0.87;;
75009;SDS011;63564;46.840;18.336;2023-12-28T05:38:47;0.73;;;0.70;;
75009;SDS011;63564;46.840;18.336;2023-12-28T05:41:47;2.30;;;1.37;;
75009;SDS011;63564;46.840;18.336;2023-12-28T05:44:50;6.05;;;1.75;;
75009;SDS011;63564;46.840;18.336;2023-12-28T05:47:50;2.30;;;1.57;;
75009;SDS011;63564;46.840;18.336;2023-12-28T05:50:51;1.07;;;0.90;;
75009;SDS011;63564;46.840;18.336;2023-12-28T05:53:51;3.53;;;1.27;;
75009;SDS011;63564;46.840;18.336;2023-12-28T05:56:51;1.00;;;0.90;;
75009;SDS011;63564;46.840;18.336;2023-12-28T05:59:52;4.40;;;1.67;;
75009;SDS011;63564;46.840;18.336;2023-12-28T06:02:52;0.90;;;0.70;;
75009;SDS011;63564;46.840;18.336;2023-12-28T06:05:52;1.33;;;1.20;;
75009;SDS011;63564;46.840;18.336;2023-12-28T06:08:53;11.48;;;2.08;;
75009;SDS011;63564;46.840;18.336;2023-12-28T06:11:53;1.57;;;1.13;;
75009;SDS011;63564;46.840;18.336;2023-12-28T06:14:53;1.17;;;1.07;;
75009;SDS011;63564;46.840;18.336;2023-12-28T06:17:54;1.67;;;1.27;;
75009;SDS011;63564;46.840;18.336;2023-12-28T06:20:54;2.00;;;1.30;;
75009;SDS011;63564;46.840;18.336;2023-12-28T06:23:55;0.73;;;0.68;;
75009;SDS011;63564;46.840;18.336;2023-12-28T06:26:55;1.13;;;0.97;;
75009;SDS011;63564;46.840;18.336;2023-12-28T06:29:56;1.42;;;1.33;;
75009;SDS011;63564;46.840;18.336;2023-12-28T06:32:57;0.60;;;0.60;;
75009;SDS011;63564;46.840;18.336;2023-12-28T06:35:57;1.30;;;0.83;;
75009;SDS011;63564;46.840;18.336;2023-12-28T06:38:58;0.97;;;0.93;;
75009;SDS011;63564;46.840;18.336;2023-12-28T06:41:59;1.50;;;1.15;;
75009;SDS011;63564;46.840;18.336;2023-12-28T06:44:59;0.97;;;0.93;;
75009;SDS011;63564;46.840;18.336;2023-12-28T06:47:59;1.23;;;1.10;;
75009;SDS011;63564;46.840;18.336;2023-12-28T06:51:00;1.80;;;1.15;;
75009;SDS011;63564;46.840;18.336;2023-12-28T06:54:00;1.52;;;1.35;;
75009;SDS011;63564;46.840;18.336;2023-12-28T06:57:01;1.93;;;1.37;;
75009;SDS011;63564;46.840;18.336;2023-12-28T07:00:01;0.87;;;0.83;;
75009;SDS011;63564;46.840;18.336;2023-12-28T07:03:03;0.77;;;0.77;;
75009;SDS011;63564;46.840;18.336;2023-12-28T07:06:03;0.70;;;0.70;;
75009;SDS011;63564;46.840;18.336;2023-12-28T07:09:04;0.85;;;0.77;;
75009;SDS011;63564;46.840;18.336;2023-12-28T07:12:05;2.05;;;1.42;;
75009;SDS011;63564;46.840;18.336;2023-12-28T07:15:06;1.38;;;0.98;;
75009;SDS011;63564;46.840;18.336;2023-12-28T07:18:07;3.22;;;1.55;;
75009;SDS011;63564;46.840;18.336;2023-12-28T07:21:07;1.77;;;1.67;;
75009;SDS011;63564;46.840;18.336;2023-12-28T07:24:11;0.70;;;0.70;;
75009;SDS011;63564;46.840;18.336;2023-12-28T07:27:11;0.95;;;0.90;;
75009;SDS011;63564;46.840;18.336;2023-12-28T07:30:12;1.30;;;1.20;;
75009;SDS011;63564;46.840;18.336;2023-12-28T07:33:13;1.00;;;0.90;;
75009;SDS011;63564;46.840;18.336;2023-12-28T07:36:13;1.70;;;1.45;;
75009;SDS011;63564;46.840;18.336;2023-12-28T07:39:13;1.13;;;0.80;;
75009;SDS011;63564;46.840;18.336;2023-12-28T07:42:14;1.93;;;1.67;;
75009;SDS011;63564;46.840;18.336;2023-12-28T07:45:15;0.82;;;0.82;;
75009;SDS011;63564;46.840;18.336;2023-12-28T07:48:17;1.17;;;0.87;;
75009;SDS011;63564;46.840;18.336;2023-12-28T07:51:17;3.70;;;2.15;;
75009;SDS011;63564;46.840;18.336;2023-12-28T07:54:18;1.13;;;0.77;;
75009;SDS011;63564;46.840;18.336;2023-12-28T07:57:18;2.90;;;1.87;;
75009;SDS011;63564;46.840;18.336;2023-12-28T08:00:18;1.90;;;0.97;;
75009;SDS011;63564;46.840;18.336;2023-12-28T08:03:19;2.03;;;1.37;;
75009;SDS011;63564;46.840;18.336;2023-12-28T08:06:19;1.30;;;0.83;;
75009;SDS011;63564;46.840;18.336;2023-12-28T08:09:20;1.23;;;1.03;;
75009;SDS011;63564;46.840;18.336;2023-12-28T08:12:20;0.67;;;0.67;;
75009;SDS011;63564;46.840;18.336;2023-12-28T08:15:24;1.67;;;0.98;;
75009;SDS011;63564;46.840;18.336;2023-12-28T08:18:24;1.20;;;1.03;;
75009;SDS011;63564;46.840;18.336;2023-12-28T08:21:25;1.55;;;1.35;;
75009;SDS011;63564;46.840;18.336;2023-12-28T08:24:25;4.00;;;0.80;;
75009;SDS011;63564;46.840;18.336;2023-12-28T08:27:26;1.27;;;1.00;;
75009;SDS011;63564;46.840;18.336;2023-12-28T08:30:26;1.53;;;1.10;;
75009;SDS011;63564;46.840;18.336;2023-12-28T08:33:27;1.92;;;1.48;;
75009;SDS011;63564;46.840;18.336;2023-12-28T08:36:28;0.67;;;0.60;;
75009;SDS011;63564;46.840;18.336;2023-12-28T08:39:29;1.52;;;1.27;;
75009;SDS011;63564;46.840;18.336;2023-12-28T08:42:29;2.03;;;1.33;;
75009;SDS011;63564;46.840;18.336;2023-12-28T08:45:30;2.80;;;1.60;;
75009;SDS011;63564;46.840;18.336;2023-12-28T08:48:30;0.70;;;0.60;;
75009;SDS011;63564;46.840;18.336;2023-12-28T08:51:31;1.87;;;1.40;;
75009;SDS011;63564;46.840;18.336;2023-12-28T08:54:31;4.87;;;1.53;;
75009;SDS011;63564;46.840;18.336;2023-12-28T08:57:31;0.93;;;0.83;;
75009;SDS011;63564;46.840;18.336;2023-12-28T09:00:32;1.03;;;0.83;;
75009;SDS011;63564;46.840;18.336;2023-12-28T09:03:32;1.30;;;1.05;;
75009;SDS011;63564;46.840;18.336;2023-12-28T09:06:32;1.97;;;1.40;;
75009;SDS011;63564;46.840;18.336;2023-12-28T09:09:33;2.07;;;1.30;;
75009;SDS011;63564;46.840;18.336;2023-12-28T09:12:33;3.00;;;1.73;;
75009;SDS011;63564;46.840;18.336;2023-12-28T09:15:33;7.50;;;2.30;;
75009;SDS011;63564;46.840;18.336;2023-12-28T09:18:34;2.13;;;1.63;;
75009;SDS011;63564;46.840;18.336;2023-12-28T09:21:36;1.83;;;1.20;;
75009;SDS011;63564;46.840;18.336;2023-12-28T09:24:36;1.60;;;1.10;;
75009;SDS011;63564;46.840;18.336;2023-12-28T09:27:37;1.73;;;1.27;;
75009;SDS011;63564;46.840;18.336;2023-12-28T09:30:37;1.93;;;1.37;;
75009;SDS011;63564;46.840;18.336;2023-12-28T09:33:38;1.60;;;1.50;;
75009;SDS011;63564;46.840;18.336;2023-12-28T09:36:38;1.40;;;1.10;;
75009;SDS011;63564;46.840;18.336;2023-12-28T09:39:38;2.13;;;1.60;;
75009;SDS011;63564;46.840;18.336;2023-12-28T09:42:40;1.57;;;1.33;;
75009;SDS011;63564;46.840;18.336;2023-12-28T09:45:49;3.27;;;1.77;;
75009;SDS011;63564;46.840;18.336;2023-12-28T09:48:50;1.85;;;1.52;;
75009;SDS011;63564;46.840;18.336;2023-12-28T09:51:53;2.87;;;1.73;;
75009;SDS011;63564;46.840;18.336;2023-12-28T09:54:54;1.55;;;1.45;;
75009;SDS011;63564;46.840;18.336;2023-12-28T09:57:54;4.43;;;2.67;;
75009;SDS011;63564;46.840;18.336;2023-12-28T10:00:57;1.80;;;1.45;;
75009;SDS011;63564;46.840;18.336;2023-12-28T10:03:59;4.10;;;2.40;;
75009;SDS011;63564;46.840;18.336;2023-12-28T10:07:00;3.50;;;1.63;;
75009;SDS011;63564;46.840;18.336;2023-12-28T10:10:00;1.53;;;1.20;;
75009;SDS011;63564;46.840;18.336;2023-12-28T10:13:01;0.80;;;0.77;;
75009;SDS011;63564;46.840;18.336;2023-12-28T10:16:02;1.50;;;0.93;;
75009;SDS011;63564;46.840;18.336;2023-12-28T10:19:03;1.70;;;1.13;;
75009;SDS011;63564;46.840;18.336;2023-12-28T10:22:03;1.50;;;1.10;;
75009;SDS011;63564;46.840;18.336;2023-12-28T10:25:04;0.80;;;0.80;;
75009;SDS011;63564;46.840;18.336;2023-12-28T10:28:05;2.42;;;1.52;;
75009;SDS011;63564;46.840;18.336;2023-12-28T10:31:07;1.90;;;1.40;;
75009;SDS011;63564;46.840;18.336;2023-12-28T10:34:08;1.48;;;1.13;;
75009;SDS011;63564;46.840;18.336;2023-12-28T10:37:08;1.20;;;1.10;;
75009;SDS011;63564;46.840;18.336;2023-12-28T10:40:13;3.38;;;1.48;;
75009;SDS011;63564;46.840;18.336;2023-12-28T10:43:16;1.00;;;0.93;;
75009;SDS011;63564;46.840;18.336;2023-12-28T10:46:25;2.20;;;1.07;;
75009;SDS011;63564;46.840;18.336;2023-12-28T10:49:27;2.20;;;1.50;;
75009;SDS011;63564;46.840;18.336;2023-12-28T10:52:32;1.73;;;1.05;;
75009;SDS011;63564;46.840;18.336;2023-12-28T10:55:53;0.88;;;0.77;;
75009;SDS011;63564;46.840;18.336;2023-12-28T10:59:15;2.63;;;1.75;;
75009;SDS011;63564;46.840;18.336;2023-12-28T11:02:25;1.98;;;1.52;;
75009;SDS011;63564;46.840;18.336;2023-12-28T11:05:28;1.38;;;1.00;;
75009;SDS011;63564;46.840;18.336;2023-12-28T11:08:31;1.53;;;1.33;;
75009;SDS011;63564;46.840;18.336;2023-12-28T11:11:34;2.33;;;1.63;;
75009;SDS011;63564;46.840;18.336;2023-12-28T11:14:35;1.65;;;1.20;;
75009;SDS011;63564;46.840;18.336;2023-12-28T11:17:39;1.65;;;1.25;;
75009;SDS011;63564;46.840;18.336;2023-12-28T11:20:40;3.33;;;1.53;;
75009;SDS011;63564;46.840;18.336;2023-12-28T11:23:42;2.65;;;2.45;;
75009;SDS011;63564;46.840;18.336;2023-12-28T11:26:44;1.77;;;1.33;;
75009;SDS011;63564;46.840;18.336;2023-12-28T11:29:44;1.77;;;1.43;;
75009;SDS011;63564;46.840;18.336;2023-12-28T11:32:48;2.97;;;1.58;;
75009;SDS011;63564;46.840;18.336;2023-12-28T11:35:48;1.63;;;1.40;;
75009;SDS011;63564;46.840;18.336;2023-12-28T11:38:52;2.80;;;1.67;;
75009;SDS011;63564;46.840;18.336;2023-12-28T11:41:59;2.47;;;1.77;;
75009;SDS011;63564;46.840;18.336;2023-12-28T11:45:05;2.50;;;1.37;;
75009;SDS011;63564;46.840;18.336;2023-12-28T11:48:06;1.83;;;1.20;;
75009;SDS011;63564;46.840;18.336;2023-12-28T11:51:06;1.83;;;0.97;;
75009;SDS011;63564;46.840;18.336;2023-12-28T11:54:07;1.95;;;1.52;;
75009;SDS011;63564;46.840;18.336;2023-12-28T11:57:07;1.20;;;1.07;;
75009;SDS011;63564;46.840;18.336;2023-12-28T12:00:08;1.37;;;1.20;;
75009;SDS011;63564;46.840;18.336;2023-12-28T12:03:12;1.10;;;0.90;;
75009;SDS011;63564;46.840;18.336;2023-12-28T12:06:13;1.98;;;1.20;;
75009;SDS011;63564;46.840;18.336;2023-12-28T12:09:16;2.63;;;1.45;;
75009;SDS011;63564;46.840;18.336;2023-12-28T12:12:20;1.35;;;1.08;;
75009;SDS011;63564;46.840;18.336;2023-12-28T12:15:20;2.03;;;1.80;;
75009;SDS011;63564;46.840;18.336;2023-12-28T12:18:21;3.07;;;1.67;;
75009;SDS011;63564;46.840;18.336;2023-12-28T12:21:22;2.63;;;2.00;;
75009;SDS011;63564;46.840;18.336;2023-12-28T12:24:23;1.73;;;1.30;;
75009;SDS011;63564;46.840;18.336;2023-12-28T12:27:24;2.00;;;1.55;;
75009;SDS011;63564;46.840;18.336;2023-12-28T12:30:24;1.63;;;1.27;;
75009;SDS011;63564;46.840;18.336;2023-12-28T12:33:25;1.43;;;1.10;;
75009;SDS011;63564;46.840;18.336;2023-12-28T12:36:26;1.58;;;0.90;;
75009;SDS011;63564;46.840;18.336;2023-12-28T12:39:27;1.02;;;0.88;;
75009;SDS011;63564;46.840;18.336;2023-12-28T12:42:27;1.53;;;1.17;;
75009;SDS011;63564;46.840;18.336;2023-12-28T12:45:28;1.13;;;1.03;;
75009;SDS011;63564;46.840;18.336;2023-12-28T12:48:28;1.85;;;1.02;;
75009;SDS011;63564;46.840;18.336;2023-12-28T12:51:29;1.60;;;1.23;;
75009;SDS011;63564;46.840;18.336;2023-12-28T12:54:29;1.67;;;1.20;;
75009;SDS011;63564;46.840;18.336;2023-12-28T12:57:30;1.07;;;0.97;;
75009;SDS011;63564;46.840;18.336;2023-12-28T13:00:30;1.58;;;1.48;;
75009;SDS011;63564;46.840;18.336;2023-12-28T13:03:31;1.23;;;1.13;;
75009;SDS011;63564;46.840;18.336;2023-12-28T13:06:31;1.93;;;1.53;;
75009;SDS011;63564;46.840;18.336;2023-12-28T13:09:31;2.73;;;1.57;;
75009;SDS011;63564;46.840;18.336;2023-12-28T13:12:32;3.03;;;1.52;;
75009;SDS011;63564;46.840;18.336;2023-12-28T13:15:33;1.43;;;1.17;;
75009;SDS011;63564;46.840;18.336;2023-12-28T13:18:33;3.33;;;1.93;;
75009;SDS011;63564;46.840;18.336;2023-12-28T13:21:35;1.45;;;1.27;;
75009;SDS011;63564;46.840;18.336;2023-12-28T13:24:35;0.60;;;0.60;;
75009;SDS011;63564;46.840;18.336;2023-12-28T13:27:35;0.90;;;0.80;;
75009;SDS011;63564;46.840;18.336;2023-12-28T13:30:36;3.27;;;1.47;;
75009;SDS011;63564;46.840;18.336;2023-12-28T13:33:37;1.98;;;1.55;;
75009;SDS011;63564;46.840;18.336;2023-12-28T13:36:37;1.23;;;0.90;;
75009;SDS011;63564;46.840;18.336;2023-12-28T13:39:38;1.60;;;1.10;;
75009;SDS011;63564;46.840;18.336;2023-12-28T13:42:38;1.20;;;1.10;;
75009;SDS011;63564;46.840;18.336;2023-12-28T13:45:39;4.93;;;2.03;;
75009;SDS011;63564;46.840;18.336;2023-12-28T13:48:39;4.67;;;2.57;;
75009;SDS011;63564;46.840;18.336;2023-12-28T13:51:39;1.43;;;1.20;;
75009;SDS011;63564;46.840;18.336;2023-12-28T13:54:40;5.85;;;2.47;;
75009;SDS011;63564;46.840;18.336;2023-12-28T13:57:41;3.25;;;2.40;;
75009;SDS011;63564;46.840;18.336;2023-12-28T14:00:42;1.95;;;1.27;;
75009;SDS011;63564;46.840;18.336;2023-12-28T14:03:42;2.43;;;1.33;;
75009;SDS011;63564;46.840;18.336;2023-12-28T14:06:45;4.88;;;1.95;;
75009;SDS011;63564;46.840;18.336;2023-12-28T14:09:45;4.10;;;2.07;;
75009;SDS011;63564;46.840;18.336;2023-12-28T14:12:46;2.07;;;1.40;;
75009;SDS011;63564;46.840;18.336;2023-12-28T14:15:46;20.50;;;3.37;;
75009;SDS011;63564;46.840;18.336;2023-12-28T14:18:46;2.13;;;1.53;;
75009;SDS011;63564;46.840;18.336;2023-12-28T14:21:48;3.97;;;2.88;;
75009;SDS011;63564;46.840;18.336;2023-12-28T14:24:49;5.15;;;2.05;;
75009;SDS011;63564;46.840;18.336;2023-12-28T14:27:52;5.40;;;2.43;;
75009;SDS011;63564;46.840;18.336;2023-12-28T14:30:53;3.50;;;2.40;;
75009;SDS011;63564;46.840;18.336;2023-12-28T14:33:53;3.80;;;2.72;;
75009;SDS011;63564;46.840;18.336;2023-12-28T14:36:54;4.27;;;2.43;;
75009;SDS011;63564;46.840;18.336;2023-12-28T14:39:55;4.88;;;2.15;;
75009;SDS011;63564;46.840;18.336;2023-12-28T14:42:55;4.40;;;2.40;;
75009;SDS011;63564;46.840;18.336;2023-12-28T14:45:56;5.77;;;2.80;;
75009;SDS011;63564;46.840;18.336;2023-12-28T14:48:56;3.53;;;2.50;;
75009;SDS011;63564;46.840;18.336;2023-12-28T14:51:57;3.40;;;2.70;;
75009;SDS011;63564;46.840;18.336;2023-12-28T14:54:57;2.93;;;1.87;;
75009;SDS011;63564;46.840;18.336;2023-12-28T14:57:57;15.13;;;2.65;;
75009;SDS011;63564;46.840;18.336;2023-12-28T15:00:59;5.50;;;2.50;;
75009;SDS011;63564;46.840;18.336;2023-12-28T15:03:59;4.55;;;2.58;;
75009;SDS011;63564;46.840;18.336;2023-12-28T15:07:00;4.07;;;2.42;;
75009;SDS011;63564;46.840;18.336;2023-12-28T15:10:00;3.97;;;1.80;;
75009;SDS011;63564;46.840;18.336;2023-12-28T15:13:01;4.50;;;2.40;;
75009;SDS011;63564;46.840;18.336;2023-12-28T15:16:02;4.72;;;2.15;;
75009;SDS011;63564;46.840;18.336;2023-12-28T15:19:03;4.97;;;2.85;;
75009;SDS011;63564;46.840;18.336;2023-12-28T15:22:04;2.97;;;2.07;;
75009;SDS011;63564;46.840;18.336;2023-12-28T15:25:04;3.93;;;2.23;;
75009;SDS011;63564;46.840;18.336;2023-12-28T15:28:06;3.75;;;2.42;;
75009;SDS011;63564;46.840;18.336;2023-12-28T15:31:06;6.33;;;3.50;;
75009;SDS011;63564;46.840;18.336;2023-12-28T15:34:07;4.23;;;2.70;;
75009;SDS011;63564;46.840;18.336;2023-12-28T15:37:07;7.30;;;3.58;;
75009;SDS011;63564;46.840;18.336;2023-12-28T15:40:07;7.17;;;3.33;;
75009;SDS011;63564;46.840;18.336;2023-12-28T15:43:08;8.55;;;4.70;;
75009;SDS011;63564;46.840;18.336;2023-12-28T15:46:10;6.57;;;4.43;;
75009;SDS011;63564;46.840;18.336;2023-12-28T15:49:10;9.83;;;5.63;;
75009;SDS011;63564;46.840;18.336;2023-12-28T15:52:11;13.00;;;6.53;;
75009;SDS011;63564;46.840;18.336;2023-12-28T15:55:11;6.50;;;4.60;;
75009;SDS011;63564;46.840;18.336;2023-12-28T15:58:11;7.27;;;4.73;;
75009;SDS011;63564;46.840;18.336;2023-12-28T16:01:12;7.17;;;4.17;;
75009;SDS011;63564;46.840;18.336;2023-12-28T16:04:12;6.07;;;3.70;;
75009;SDS011;63564;46.840;18.336;2023-12-28T16:07:12;5.80;;;3.97;;
75009;SDS011;63564;46.840;18.336;2023-12-28T16:10:13;8.70;;;4.23;;
75009;SDS011;63564;46.840;18.336;2023-12-28T16:13:14;3.78;;;2.75;;
75009;SDS011;63564;46.840;18.336;2023-12-28T16:16:14;6.17;;;3.23;;
75009;SDS011;63564;46.840;18.336;2023-12-28T16:19:15;3.17;;;2.25;;
75009;SDS011;63564;46.840;18.336;2023-12-28T16:22:15;3.55;;;2.00;;
75009;SDS011;63564;46.840;18.336;2023-12-28T16:25:16;1.27;;;1.17;;
75009;SDS011;63564;46.840;18.336;2023-12-28T16:28:16;5.73;;;2.70;;
75009;SDS011;63564;46.840;18.336;2023-12-28T16:31:17;3.77;;;1.97;;
75009;SDS011;63564;46.840;18.336;2023-12-28T16:34:17;4.05;;;1.48;;
75009;SDS011;63564;46.840;18.336;2023-12-28T16:37:17;2.73;;;1.77;;
75009;SDS011;63564;46.840;18.336;2023-12-28T16:40:18;1.93;;;1.67;;
75009;SDS011;63564;46.840;18.336;2023-12-28T16:43:18;2.20;;;1.63;;
75009;SDS011;63564;46.840;18.336;2023-12-28T16:46:19;3.40;;;1.70;;
75009;SDS011;63564;46.840;18.336;2023-12-28T16:49:19;9.10;;;6.47;;
75009;SDS011;63564;46.840;18.336;2023-12-28T16:52:19;7.30;;;5.60;;
75009;SDS011;63564;46.840;18.336;2023-12-28T16:55:20;10.60;;;4.38;;
75009;SDS011;63564;46.840;18.336;2023-12-28T16:58:20;4.80;;;2.83;;
75009;SDS011;63564;46.840;18.336;2023-12-28T17:01:21;8.43;;;3.37;;
75009;SDS011;63564;46.840;18.336;2023-12-28T17:04:21;2.03;;;1.53;;
75009;SDS011;63564;46.840;18.336;2023-12-28T17:07:22;4.77;;;2.23;;
75009;SDS011;63564;46.840;18.336;2023-12-28T17:10:22;3.10;;;1.77;;
75009;SDS011;63564;46.840;18.336;2023-12-28T17:13:23;2.10;;;1.63;;
75009;SDS011;63564;46.840;18.336;2023-12-28T17:16:24;2.88;;;1.23;;
75009;SDS011;63564;46.840;18.336;2023-12-28T17:19:25;2.07;;;1.27;;
75009;SDS011;63564;46.840;18.336;2023-12-28T17:22:25;1.55;;;0.95;;
75009;SDS011;63564;46.840;18.336;2023-12-28T17:26:14;2.20;;;2.00;;
75009;SDS011;63564;46.840;18.336;2023-12-28T17:28:58;2.53;;;1.63;;
75009;SDS011;63564;46.840;18.336;2023-12-28T17:31:58;2.40;;;1.75;;
75009;SDS011;63564;46.840;18.336;2023-12-28T17:35:02;1.98;;;1.55;;
75009;SDS011;63564;46.840;18.336;2023-12-28T17:38:04;2.10;;;1.07;;
75009;SDS011;63564;46.840;18.336;2023-12-28T17:41:05;2.00;;;1.50;;
75009;SDS011;63564;46.840;18.336;2023-12-28T17:44:10;2.10;;;1.27;;
75009;SDS011;63564;46.840;18.336;2023-12-28T17:47:15;4.10;;;2.65;;
75009;SDS011;63564;46.840;18.336;2023-12-28T17:50:20;1.98;;;1.60;;
75009;SDS011;63564;46.840;18.336;2023-12-28T17:53:22;3.42;;;2.25;;